Mont-Saint-Guibert, Belgium
Current Conditions -  °F | °C
As of 4:52 AM on Monday 24 Nov 2014 (Local Time) from EBBE Reporting Station
Broken Clouds Broken Clouds  
Wind Chill: 42°   Ceiling: 2300
Heat Index: 46°   Visibility: 6mi
Dew Point: 46°   Wind: 8mph
Humidity: 100%   Direction: 310°NW
Pressure: 30.15"   Gusts: NA
Location:  50.63°N, 4.61°E
Report Text: EBBE 240352Z AUTO 31007KT 9999 FEW006/// SCT010/// BKN023/// 08/08 Q1021 GRN
Loading
Personal Weather Stations






























Interactive Weather Map New forecast layout! Learn more

10-Day Weather Forecast

Advertisements
Track Severe Weather on mobile